Airport View

Enter AWOS ICAO identifier for current METAR.

ex. KFNL

KMOX 191916Z AUTO 10003KT 10SM CLR 23/09 A2975 RMK AO2

19 Jun 2019 19:31

Frequency: 109.6

Phone: 320-589-1303

Other Area AWOS: KBBB - KAQP - KVVV - KY63

TAF KAXN 191727Z 1918/2018 11008KT P6SM SCT040 BKN250 FM200000 12007KT P6SM SCT040 BKN120 FM201600 13015G20KT P6SM VCSH OVC050